Time;durP1;ratioP1;P1;durP2;ratioP2;P2;SDS_P1;SDS_P2;PMS_P1;PMS_P2;Temp;Humidity;BMP_temperature;BMP_pressure;BME280_temperature;BME280_humidity;BME280_pressure;Samples;Min_cycle;Max_cycle;Signal;HPM_P1;HPM_P2
2023/12/30 00:01:21;;;;;;;2.70;2.40;;;10.50;86.20;;;;;;5021593;28;20043;-74
2023/12/30 00:03:48;;;;;;;4.13;1.67;;;10.50;86.20;;;;;;5003265;28;20132;-74
2023/12/30 00:06:19;;;;;;;1.98;1.67;;;10.50;86.10;;;;;;5019485;28;20038;-75
2023/12/30 00:08:46;;;;;;;2.13;1.63;;;10.50;86.10;;;;;;5021951;28;20041;-74
2023/12/30 00:11:12;;;;;;;2.25;2.05;;;10.50;86.00;;;;;;5020817;28;20029;-74
2023/12/30 00:13:38;;;;;;;1.75;1.65;;;10.50;86.10;;;;;;5036116;28;20064;-74
2023/12/30 00:16:04;;;;;;;1.70;1.42;;;10.50;86.10;;;;;;5019613;28;20125;-76
2023/12/30 00:18:30;;;;;;;2.53;1.52;;;10.50;86.10;;;;;;5015032;28;20033;-75
2023/12/30 00:20:57;;;;;;;1.75;1.65;;;10.50;86.40;;;;;;5019786;28;20524;-73
2023/12/30 00:23:23;;;;;;;1.80;1.70;;;10.50;86.30;;;;;;5019893;28;20038;-74
2023/12/30 00:25:49;;;;;;;1.60;1.50;;;10.50;86.30;;;;;;5023310;28;20044;-73
2023/12/30 00:28:15;;;;;;;1.73;1.45;;;10.50;86.30;;;;;;5021849;28;20096;-74
2023/12/30 00:30:41;;;;;;;1.98;1.77;;;10.60;86.40;;;;;;5022980;28;20072;-74
2023/12/30 00:33:07;;;;;;;1.70;1.48;;;10.50;86.40;;;;;;5018362;28;20427;-74
2023/12/30 00:35:33;;;;;;;1.70;1.55;;;10.50;86.40;;;;;;5004849;28;20034;-74
2023/12/30 00:37:59;;;;;;;2.10;1.70;;;10.50;86.50;;;;;;5035972;28;20594;-74
2023/12/30 00:40:25;;;;;;;1.77;1.50;;;10.60;86.40;;;;;;5021964;28;20030;-76
2023/12/30 00:42:51;;;;;;;2.65;1.70;;;10.50;86.50;;;;;;5038610;28;20042;-76
2023/12/30 00:45:17;;;;;;;1.50;1.40;;;10.50;86.60;;;;;;5036166;28;20040;-76
2023/12/30 00:47:43;;;;;;;2.08;1.90;;;10.50;86.60;;;;;;5021613;28;20042;-76
2023/12/30 00:50:09;;;;;;;1.73;1.60;;;10.50;86.60;;;;;;5036238;28;20081;-76
2023/12/30 00:52:35;;;;;;;1.67;1.45;;;10.50;86.60;;;;;;5021223;28;20037;-74
2023/12/30 00:55:01;;;;;;;1.90;1.63;;;10.50;86.50;;;;;;5021591;28;20378;-74
2023/12/30 00:57:27;;;;;;;2.05;1.63;;;10.60;86.60;;;;;;5022479;28;20041;-74
2023/12/30 00:59:53;;;;;;;1.40;1.30;;;10.50;86.60;;;;;;5035931;28;20117;-74
2023/12/30 01:02:19;;;;;;;2.70;1.83;;;10.50;86.60;;;;;;5019951;28;20039;-74
2023/12/30 01:04:45;;;;;;;2.92;1.38;;;10.50;86.60;;;;;;5039406;28;20029;-74
2023/12/30 01:07:11;;;;;;;2.40;1.25;;;10.50;86.70;;;;;;5003320;28;20034;-74
2023/12/30 01:09:37;;;;;;;1.52;1.42;;;10.60;86.80;;;;;;5023577;28;20692;-73
2023/12/30 01:12:03;;;;;;;1.40;1.30;;;10.50;86.80;;;;;;5036538;28;20030;-74
2023/12/30 01:14:29;;;;;;;1.48;1.35;;;10.50;86.80;;;;;;5040101;28;20061;-74
2023/12/30 01:16:55;;;;;;;1.27;1.17;;;10.60;86.80;;;;;;5024316;28;20049;-74
2023/12/30 01:19:25;;;;;;;1.67;1.17;;;10.50;86.80;;;;;;5007282;28;20052;-75
2023/12/30 01:21:51;;;;;;;1.30;1.20;;;10.50;86.60;;;;;;5040942;28;20492;-74
2023/12/30 01:24:17;;;;;;;1.42;1.33;;;10.50;86.60;;;;;;5037847;28;20072;-74
2023/12/30 01:26:43;;;;;;;1.20;1.08;;;10.60;86.50;;;;;;5039144;28;20045;-74
2023/12/30 01:29:09;;;;;;;2.10;1.08;;;10.60;86.50;;;;;;5026905;28;20025;-74
2023/12/30 01:31:35;;;;;;;1.08;0.90;;;10.60;86.50;;;;;;5025182;28;20048;-74
2023/12/30 01:34:01;;;;;;;1.30;1.17;;;10.60;86.70;;;;;;5022865;28;20503;-75
2023/12/30 01:36:28;;;;;;;1.35;1.17;;;10.60;86.60;;;;;;5026183;28;20037;-74
2023/12/30 01:38:54;;;;;;;1.35;1.20;;;10.60;86.70;;;;;;5022797;28;20044;-76
2023/12/30 01:41:20;;;;;;;1.55;1.00;;;10.60;86.70;;;;;;5039803;28;20029;-76
2023/12/30 01:43:46;;;;;;;1.17;1.08;;;10.60;86.80;;;;;;5007917;28;20390;-77
2023/12/30 01:46:12;;;;;;;1.10;1.00;;;10.60;86.70;;;;;;5024773;28;20087;-76
2023/12/30 01:48:39;;;;;;;0.88;0.88;;;10.60;86.80;;;;;;5041293;28;20033;-76
2023/12/30 01:51:07;;;;;;;1.13;0.90;;;10.60;87.40;;;;;;5025120;28;20048;-74
2023/12/30 01:53:37;;;;;;;1.17;0.82;;;10.60;86.90;;;;;;5024572;28;20022;-74
2023/12/30 01:56:03;;;;;;;0.90;0.90;;;10.60;86.90;;;;;;5025529;28;20428;-74
2023/12/30 01:58:30;;;;;;;0.77;0.77;;;10.60;86.90;;;;;;5039308;28;20034;-75
2023/12/30 02:00:58;;;;;;;1.27;1.13;;;10.60;87.10;;;;;;5037948;28;20120;-74
2023/12/30 02:03:24;;;;;;;1.10;1.00;;;10.60;87.00;;;;;;5022981;28;20041;-75
2023/12/30 02:05:52;;;;;;;0.90;0.82;;;10.60;87.00;;;;;;5023939;28;20056;-75
2023/12/30 02:08:18;;;;;;;1.88;1.08;;;10.60;87.00;;;;;;5008027;28;20029;-74
2023/12/30 02:10:45;;;;;;;0.80;0.73;;;10.60;86.90;;;;;;5022189;28;20040;-74
2023/12/30 02:13:11;;;;;;;0.70;0.70;;;10.60;87.00;;;;;;5038271;28;20504;-74
2023/12/30 02:15:37;;;;;;;0.88;0.88;;;10.60;87.10;;;;;;5022461;28;20092;-73
2023/12/30 02:18:04;;;;;;;1.00;0.90;;;10.60;87.20;;;;;;5039254;28;20042;-73
2023/12/30 02:20:31;;;;;;;0.82;0.77;;;10.60;87.20;;;;;;5006068;28;20053;-73
2023/12/30 02:22:57;;;;;;;1.00;0.90;;;10.60;87.40;;;;;;5024381;28;20034;-73
2023/12/30 02:25:23;;;;;;;1.05;0.90;;;10.60;87.30;;;;;;5023662;28;20026;-73
2023/12/30 02:27:49;;;;;;;1.27;1.00;;;10.60;87.30;;;;;;5039422;28;20087;-73
2023/12/30 02:30:15;;;;;;;1.25;0.68;;;10.60;87.30;;;;;;5003627;28;20033;-73
2023/12/30 02:32:41;;;;;;;1.20;1.10;;;10.60;87.30;;;;;;5038342;28;20128;-73
2023/12/30 02:35:08;;;;;;;1.05;0.82;;;10.60;87.20;;;;;;5021981;28;20033;-73
2023/12/30 02:37:34;;;;;;;1.05;0.98;;;10.60;87.10;;;;;;5039574;28;20120;-73
2023/12/30 02:40:00;;;;;;;1.23;0.93;;;10.60;87.10;;;;;;5020705;28;20460;-74
2023/12/30 02:42:25;;;;;;;0.90;0.88;;;10.60;87.30;;;;;;5037225;28;20132;-73
2023/12/30 02:44:52;;;;;;;0.82;0.82;;;10.60;87.30;;;;;;5004623;28;20116;-73
2023/12/30 02:47:18;;;;;;;1.13;1.00;;;10.60;87.20;;;;;;5021230;28;20077;-73
2023/12/30 02:49:45;;;;;;;1.65;1.02;;;10.60;87.40;;;;;;5037425;28;20095;-73
2023/12/30 02:52:11;;;;;;;0.80;0.77;;;10.70;87.50;;;;;;5037412;28;20103;-73
2023/12/30 02:54:37;;;;;;;0.80;0.80;;;10.60;88.00;;;;;;5039168;28;20034;-73
2023/12/30 02:57:04;;;;;;;0.93;0.90;;;10.70;87.40;;;;;;5021235;28;20120;-73
2023/12/30 02:59:30;;;;;;;0.80;0.80;;;10.60;87.40;;;;;;5037683;28;20029;-73
2023/12/30 03:01:56;;;;;;;1.77;0.90;;;10.60;87.70;;;;;;5022451;28;20061;-73
2023/12/30 03:04:23;;;;;;;0.90;0.90;;;10.60;87.80;;;;;;5024073;28;20041;-73
2023/12/30 03:06:49;;;;;;;1.27;1.17;;;10.60;87.90;;;;;;5035691;28;20029;-73
2023/12/30 03:09:15;;;;;;;0.95;0.95;;;10.60;87.80;;;;;;5003928;28;20037;-72
2023/12/30 03:11:42;;;;;;;1.55;1.17;;;10.60;87.90;;;;;;5036065;28;20083;-73
2023/12/30 03:14:08;;;;;;;0.85;0.85;;;10.60;88.00;;;;;;5037757;28;20041;-74
2023/12/30 03:16:35;;;;;;;0.82;0.82;;;10.70;87.90;;;;;;5020729;28;20065;-72
2023/12/30 03:19:02;;;;;;;1.27;0.88;;;10.60;87.80;;;;;;5024973;28;20034;-73
2023/12/30 03:21:28;;;;;;;0.90;0.90;;;10.70;88.00;;;;;;5021212;28;20037;-73
2023/12/30 03:23:54;;;;;;;0.98;0.95;;;10.60;88.00;;;;;;5020117;28;20388;-74
2023/12/30 03:26:20;;;;;;;1.20;1.10;;;10.60;88.10;;;;;;5025957;28;20041;-73
2023/12/30 03:28:46;;;;;;;1.15;1.05;;;10.70;88.10;;;;;;5021250;28;20117;-73
2023/12/30 03:31:27;;;;;;;1.10;1.00;;;10.70;88.30;;;;;;5019944;28;20564;-74
2023/12/30 03:33:54;;;;;;;0.70;0.70;;;10.70;88.20;;;;;;5038326;28;20381;-73
2023/12/30 03:36:20;;;;;;;1.30;0.80;;;10.60;88.40;;;;;;5019847;28;20040;-74
2023/12/30 03:38:51;;;;;;;1.17;0.80;;;10.70;88.40;;;;;;5021918;28;20033;-74
2023/12/30 03:41:17;;;;;;;0.80;0.80;;;10.70;88.30;;;;;;5036496;28;20065;-73
2023/12/30 03:43:44;;;;;;;0.77;0.77;;;10.70;88.30;;;;;;5020576;28;20038;-73
2023/12/30 03:46:10;;;;;;;1.35;0.80;;;10.70;88.20;;;;;;5022722;28;20025;-73
2023/12/30 03:48:36;;;;;;;0.60;0.60;;;10.70;88.10;;;;;;5021225;28;20052;-73
2023/12/30 03:51:03;;;;;;;0.70;0.70;;;10.70;88.30;;;;;;5020929;28;20034;-73
2023/12/30 03:53:29;;;;;;;1.05;0.70;;;10.70;88.20;;;;;;5023675;28;20090;-73
2023/12/30 03:55:55;;;;;;;0.93;0.70;;;10.70;88.10;;;;;;5003075;28;21502;-73
2023/12/30 03:58:21;;;;;;;0.85;0.80;;;10.70;88.10;;;;;;5036974;28;20041;-73
2023/12/30 04:00:47;;;;;;;1.52;0.80;;;10.70;88.20;;;;;;5023547;28;20064;-73
2023/12/30 04:03:14;;;;;;;0.65;0.65;;;10.70;88.10;;;;;;5021064;28;20037;-73
2023/12/30 04:05:40;;;;;;;1.38;0.65;;;10.70;88.10;;;;;;5018655;28;20079;-73
2023/12/30 04:08:06;;;;;;;0.50;0.50;;;10.70;88.20;;;;;;5021459;28;20042;-73
2023/12/30 04:10:32;;;;;;;0.73;0.60;;;10.70;88.20;;;;;;5036577;28;20030;-73
2023/12/30 04:12:58;;;;;;;0.45;0.45;;;10.70;88.30;;;;;;5022911;28;20041;-73
2023/12/30 04:15:24;;;;;;;0.75;0.52;;;10.70;88.30;;;;;;5037610;28;20034;-73
2023/12/30 04:17:50;;;;;;;0.30;0.30;;;10.70;88.30;;;;;;5036283;28;20083;-74
2023/12/30 04:20:16;;;;;;;0.40;0.40;;;10.70;88.20;;;;;;5038356;28;20033;-72
2023/12/30 04:22:42;;;;;;;1.20;0.43;;;10.70;88.20;;;;;;5018315;28;20127;-73
2023/12/30 04:25:09;;;;;;;0.30;0.30;;;10.70;88.20;;;;;;5035604;28;20484;-73
2023/12/30 04:27:36;;;;;;;0.30;0.30;;;10.70;88.10;;;;;;5002953;28;20051;-73
2023/12/30 04:30:02;;;;;;;0.32;0.32;;;10.70;87.90;;;;;;5035879;28;20034;-73
2023/12/30 04:32:29;;;;;;;0.60;0.20;;;10.70;87.80;;;;;;5035333;28;20387;-73
2023/12/30 04:34:55;;;;;;;0.77;0.38;;;10.70;87.80;;;;;;5002742;28;20042;-73
2023/12/30 04:37:21;;;;;;;0.28;0.28;;;10.70;87.80;;;;;;5022843;28;20037;-73
2023/12/30 04:39:48;;;;;;;0.30;0.30;;;10.70;88.00;;;;;;5035752;28;20042;-73
2023/12/30 04:42:15;;;;;;;0.55;0.30;;;10.70;87.90;;;;;;5023961;28;20041;-73
2023/12/30 04:44:41;;;;;;;0.40;0.30;;;10.70;87.90;;;;;;5022197;28;20025;-73
2023/12/30 04:47:07;;;;;;;0.90;0.40;;;10.70;87.80;;;;;;5038824;28;20065;-73
2023/12/30 04:49:34;;;;;;;1.00;0.40;;;10.70;87.90;;;;;;5042574;28;20401;-73
2023/12/30 04:52:00;;;;;;;0.30;0.30;;;10.70;87.70;;;;;;5043258;28;20037;-73
2023/12/30 04:54:26;;;;;;;0.30;0.30;;;10.70;87.60;;;;;;5040650;28;20041;-73
2023/12/30 04:56:52;;;;;;;0.50;0.50;;;10.70;87.50;;;;;;5040017;28;20049;-73
2023/12/30 04:59:20;;;;;;;0.35;0.30;;;10.70;87.40;;;;;;5041363;28;20030;-72
2023/12/30 05:01:46;;;;;;;0.32;0.30;;;10.70;87.40;;;;;;5021957;28;20473;-72
2023/12/30 05:04:12;;;;;;;0.40;0.30;;;10.70;87.40;;;;;;5041400;28;20049;-72
2023/12/30 05:06:38;;;;;;;0.30;0.30;;;10.70;87.40;;;;;;5039488;28;20042;-72
2023/12/30 05:09:05;;;;;;;0.20;0.20;;;10.70;87.40;;;;;;5025551;28;20594;-72
2023/12/30 05:11:31;;;;;;;0.57;0.40;;;10.70;87.40;;;;;;5025298;28;20465;-72
2023/12/30 05:13:57;;;;;;;0.25;0.25;;;10.70;87.40;;;;;;5025456;28;20037;-72
2023/12/30 05:16:23;;;;;;;0.32;0.20;;;10.70;87.50;;;;;;5025189;28;20041;-71
2023/12/30 05:18:49;;;;;;;0.40;0.20;;;10.70;87.40;;;;;;5025679;28;20500;-72
2023/12/30 05:21:16;;;;;;;1.00;0.30;;;10.70;87.40;;;;;;5024605;28;20115;-72
2023/12/30 05:23:43;;;;;;;0.70;0.30;;;10.70;87.40;;;;;;5023363;28;20792;-72
2023/12/30 05:26:12;;;;;;;0.30;0.30;;;10.70;87.50;;;;;;5022684;28;20033;-73
2023/12/30 05:28:39;;;;;;;0.30;0.30;;;10.70;87.30;;;;;;5039455;28;20453;-72
2023/12/30 05:31:05;;;;;;;0.25;0.25;;;10.70;87.40;;;;;;5040126;28;20116;-73
2023/12/30 05:33:31;;;;;;;0.45;0.30;;;10.70;87.30;;;;;;5022469;28;20124;-73
2023/12/30 05:35:57;;;;;;;0.30;0.30;;;10.70;87.20;;;;;;5023372;28;20044;-74
2023/12/30 05:38:23;;;;;;;1.23;0.30;;;10.70;87.20;;;;;;5025987;28;20021;-73
2023/12/30 05:40:49;;;;;;;0.63;0.40;;;10.70;87.20;;;;;;5021984;28;20063;-73
2023/12/30 05:43:15;;;;;;;0.85;0.30;;;10.70;87.10;;;;;;5024629;28;20450;-73
2023/12/30 05:45:43;;;;;;;0.85;0.47;;;10.70;87.80;;;;;;5022654;28;20034;-73
2023/12/30 05:48:09;;;;;;;0.35;0.35;;;10.70;87.30;;;;;;5002136;28;20042;-73
2023/12/30 05:50:35;;;;;;;0.63;0.47;;;10.70;87.20;;;;;;5006694;28;20530;-73
2023/12/30 05:53:02;;;;;;;0.20;0.20;;;10.70;87.20;;;;;;5005786;28;20076;-72
2023/12/30 05:55:28;;;;;;;0.30;0.30;;;10.70;87.30;;;;;;5005618;28;20065;-72
2023/12/30 05:57:53;;;;;;;0.28;0.28;;;10.70;87.30;;;;;;5036818;28;20121;-73
2023/12/30 06:00:20;;;;;;;0.63;0.40;;;10.70;87.30;;;;;;5004774;28;20046;-73
2023/12/30 06:02:48;;;;;;;0.30;0.30;;;10.70;87.50;;;;;;5022560;28;20499;-73
2023/12/30 06:05:14;;;;;;;0.30;0.30;;;10.70;87.30;;;;;;5004841;28;20030;-72
2023/12/30 06:07:40;;;;;;;0.82;0.40;;;10.70;87.50;;;;;;5003661;28;20034;-73
2023/12/30 06:10:07;;;;;;;0.30;0.30;;;10.70;87.40;;;;;;5004026;28;20034;-73
2023/12/30 06:12:33;;;;;;;0.30;0.30;;;10.70;87.40;;;;;;5035580;28;20030;-72
2023/12/30 06:14:59;;;;;;;0.30;0.30;;;10.70;87.50;;;;;;5006091;28;20045;-73
2023/12/30 06:17:25;;;;;;;0.60;0.38;;;10.70;87.60;;;;;;5003526;28;20065;-74
2023/12/30 06:19:51;;;;;;;0.28;0.28;;;10.70;87.60;;;;;;5003184;28;20235;-73
2023/12/30 06:22:17;;;;;;;1.33;0.40;;;10.70;87.60;;;;;;5002555;28;20408;-73
2023/12/30 06:24:44;;;;;;;0.30;0.30;;;10.70;87.60;;;;;;5035130;28;20034;-73
2023/12/30 06:27:10;;;;;;;0.52;0.40;;;10.80;87.70;;;;;;5004297;28;20792;-74
2023/12/30 06:29:36;;;;;;;0.30;0.22;;;10.70;87.80;;;;;;5001545;28;20121;-72
2023/12/30 06:32:02;;;;;;;1.35;0.40;;;10.70;87.80;;;;;;5003872;28;20026;-73
2023/12/30 06:34:29;;;;;;;0.30;0.30;;;10.70;87.90;;;;;;5002411;28;20751;-73
2023/12/30 06:36:55;;;;;;;0.82;0.45;;;10.70;88.00;;;;;;5006765;28;20485;-72
2023/12/30 06:39:21;;;;;;;1.15;0.60;;;10.70;87.70;;;;;;5003065;28;20061;-73
2023/12/30 06:41:47;;;;;;;0.98;0.50;;;10.70;88.00;;;;;;5035738;28;20037;-73
2023/12/30 06:44:12;;;;;;;0.35;0.35;;;10.70;87.90;;;;;;5037606;28;20389;-73
2023/12/30 06:46:40;;;;;;;1.23;0.40;;;10.70;87.80;;;;;;5007064;28;20049;-74
2023/12/30 06:49:06;;;;;;;1.33;0.50;;;10.70;87.80;;;;;;5023979;28;20043;-74
2023/12/30 06:51:32;;;;;;;0.60;0.40;;;10.80;88.00;;;;;;5021354;28;20401;-73
2023/12/30 06:53:58;;;;;;;2.28;0.63;;;10.80;88.00;;;;;;5021541;28;20029;-74
2023/12/30 06:56:24;;;;;;;1.25;0.50;;;10.80;88.20;;;;;;5022157;28;20021;-74
2023/12/30 06:58:51;;;;;;;1.35;0.47;;;10.80;88.30;;;;;;5022437;28;20111;-75
2023/12/30 07:01:20;;;;;;;1.42;0.40;;;10.80;89.20;;;;;;5039252;28;20042;-74
2023/12/30 07:03:46;;;;;;;0.70;0.45;;;10.80;88.60;;;;;;5023804;28;20076;-76
2023/12/30 07:06:12;;;;;;;0.73;0.40;;;10.80;88.60;;;;;;5020665;28;20045;-74
2023/12/30 07:08:38;;;;;;;1.65;0.77;;;10.80;88.50;;;;;;5023011;28;20495;-72
2023/12/30 07:11:04;;;;;;;1.80;0.65;;;10.80;88.60;;;;;;5021675;28;20030;-74
2023/12/30 07:13:30;;;;;;;2.65;0.60;;;10.80;88.50;;;;;;5007754;28;20034;-74
2023/12/30 07:15:56;;;;;;;0.60;0.60;;;10.80;88.60;;;;;;5020385;28;20036;-74
2023/12/30 07:18:22;;;;;;;1.02;0.40;;;10.80;88.50;;;;;;5022772;28;20034;-73
2023/12/30 07:20:48;;;;;;;1.45;0.60;;;10.90;88.60;;;;;;5022410;28;20044;-73
2023/12/30 07:23:14;;;;;;;0.63;0.47;;;10.90;88.70;;;;;;5022895;28;20124;-73
2023/12/30 07:25:40;;;;;;;1.83;0.40;;;10.90;88.70;;;;;;5021163;28;20025;-72
2023/12/30 07:28:07;;;;;;;1.05;0.40;;;10.90;88.80;;;;;;5024359;28;20029;-73
2023/12/30 07:30:34;;;;;;;1.10;0.40;;;10.90;88.90;;;;;;5002497;28;20033;-72
2023/12/30 07:33:01;;;;;;;1.67;0.35;;;10.90;88.90;;;;;;5020897;28;20033;-73
2023/12/30 07:35:27;;;;;;;2.55;0.65;;;10.90;88.90;;;;;;5036866;28;20029;-73
2023/12/30 07:37:53;;;;;;;3.13;0.40;;;10.90;89.10;;;;;;5020720;28;20137;-72
2023/12/30 07:40:19;;;;;;;1.65;0.65;;;10.90;89.00;;;;;;5020375;28;20029;-72
2023/12/30 07:42:45;;;;;;;0.63;0.50;;;10.90;89.00;;;;;;5019084;28;20038;-73
2023/12/30 07:45:11;;;;;;;2.80;0.68;;;10.90;89.00;;;;;;5019912;28;20034;-73
2023/12/30 07:47:37;;;;;;;1.52;0.65;;;10.90;89.10;;;;;;5021012;28;20061;-73
2023/12/30 07:50:05;;;;;;;0.75;0.52;;;10.90;89.10;;;;;;5022071;28;20052;-73
2023/12/30 07:52:31;;;;;;;1.55;0.90;;;10.90;89.00;;;;;;5022413;28;20496;-72
2023/12/30 07:54:56;;;;;;;1.63;0.40;;;10.90;89.00;;;;;;5022254;28;20045;-74
2023/12/30 07:57:22;;;;;;;1.55;0.65;;;10.90;89.00;;;;;;5021322;28;20064;-73
2023/12/30 07:59:49;;;;;;;1.65;0.90;;;10.90;89.10;;;;;;5020386;28;20034;-73
2023/12/30 08:02:16;;;;;;;0.80;0.80;;;11.00;89.30;;;;;;5003305;28;20155;-74
2023/12/30 08:04:43;;;;;;;2.47;0.88;;;11.00;89.30;;;;;;5005366;28;20549;-73
2023/12/30 08:07:09;;;;;;;4.72;1.13;;;11.00;89.50;;;;;;5019734;28;20128;-71
2023/12/30 08:09:37;;;;;;;5.15;0.82;;;11.00;90.20;;;;;;5021043;28;20454;-71
2023/12/30 08:12:04;;;;;;;3.67;0.88;;;11.20;90.60;;;;;;5044120;28;20037;-76
2023/12/30 08:14:30;;;;;;;1.48;0.90;;;11.30;90.90;;;;;;5043609;28;20048;-75
2023/12/30 08:16:58;;;;;;;3.20;0.70;;;11.40;91.20;;;;;;5030589;28;20069;-71
2023/12/30 08:19:24;;;;;;;2.05;1.00;;;11.40;91.30;;;;;;5026183;28;20053;-72
2023/12/30 08:21:50;;;;;;;1.55;0.65;;;11.60;92.40;;;;;;5029292;28;20068;-72
2023/12/30 08:24:19;;;;;;;3.60;0.90;;;11.70;92.70;;;;;;5033754;28;20496;-72
2023/12/30 08:26:45;;;;;;;3.33;0.50;;;11.90;92.80;;;;;;5032380;28;20041;-72
2023/12/30 08:29:11;;;;;;;3.00;0.80;;;12.00;93.00;;;;;;5034508;28;20029;-72
2023/12/30 08:31:37;;;;;;;2.90;0.80;;;12.20;92.90;;;;;;5039061;28;20037;-72
2023/12/30 08:34:03;;;;;;;5.43;0.82;;;12.30;92.80;;;;;;5034590;28;20040;-78
2023/12/30 08:36:29;;;;;;;3.03;0.95;;;12.40;93.00;;;;;;5032309;28;20037;-77
2023/12/30 08:38:55;;;;;;;3.97;1.00;;;12.40;92.20;;;;;;5029530;28;20029;-76
2023/12/30 08:41:24;;;;;;;3.60;1.20;;;12.40;91.30;;;;;;5028495;28;20040;-77
2023/12/30 08:43:55;;;;;;;4.45;0.93;;;12.30;90.80;;;;;;5025319;28;20037;-76
2023/12/30 08:46:21;;;;;;;4.03;1.38;;;12.30;90.40;;;;;;5024689;28;20036;-78
2023/12/30 08:48:47;;;;;;;2.42;1.17;;;12.20;90.00;;;;;;5022804;28;20037;-80
2023/12/30 08:51:14;;;;;;;2.55;1.10;;;12.20;89.60;;;;;;5038823;28;20860;-73
2023/12/30 08:53:40;;;;;;;3.70;1.10;;;12.20;88.70;;;;;;5022431;28;20044;-75
2023/12/30 08:56:06;;;;;;;3.03;1.40;;;12.20;88.30;;;;;;5022919;28;20123;-74
2023/12/30 08:58:32;;;;;;;4.32;1.10;;;12.20;88.20;;;;;;5021198;28;20753;-75
2023/12/30 09:00:59;;;;;;;1.38;1.00;;;12.10;87.90;;;;;;5022545;28;20067;-74
2023/12/30 09:03:25;;;;;;;2.05;0.90;;;12.10;87.50;;;;;;5003504;28;20048;-74
2023/12/30 09:05:52;;;;;;;3.05;0.90;;;12.10;87.00;;;;;;5003065;28;20072;-75
2023/12/30 09:08:19;;;;;;;2.58;1.10;;;12.00;86.70;;;;;;5022724;28;20627;-76
2023/12/30 09:10:45;;;;;;;1.90;1.10;;;12.00;86.60;;;;;;5022559;28;20098;-76
2023/12/30 09:13:11;;;;;;;1.63;1.02;;;12.00;86.60;;;;;;5024580;28;20034;-76
2023/12/30 09:15:37;;;;;;;1.65;1.10;;;11.90;86.50;;;;;;5020582;28;20041;-74
2023/12/30 09:18:04;;;;;;;0.95;0.95;;;11.90;86.40;;;;;;5037154;28;20061;-74
2023/12/30 09:20:30;;;;;;;1.65;1.40;;;11.90;86.20;;;;;;5008172;28;20503;-76
2023/12/30 09:22:56;;;;;;;2.38;1.13;;;11.90;86.20;;;;;;5019580;28;20049;-75
2023/12/30 09:25:22;;;;;;;3.08;1.30;;;11.90;86.20;;;;;;5020553;28;20065;-75
2023/12/30 09:27:48;;;;;;;1.20;1.00;;;11.80;86.10;;;;;;5023550;28;20133;-75
2023/12/30 09:30:14;;;;;;;1.58;0.80;;;11.80;86.00;;;;;;5020735;28;20040;-74
2023/12/30 09:32:40;;;;;;;1.30;0.95;;;11.80;85.90;;;;;;5021583;28;20022;-74
2023/12/30 09:35:07;;;;;;;1.17;1.08;;;11.80;85.80;;;;;;5021093;28;20033;-74
2023/12/30 09:37:33;;;;;;;1.25;1.08;;;11.80;85.60;;;;;;5021505;28;20083;-74
2023/12/30 09:39:59;;;;;;;3.08;1.05;;;11.70;85.40;;;;;;5020911;28;20029;-75
2023/12/30 09:42:27;;;;;;;1.33;1.02;;;11.70;85.40;;;;;;5020365;28;20029;-74
2023/12/30 09:44:55;;;;;;;1.60;1.02;;;11.70;85.30;;;;;;5020042;28;20040;-74
2023/12/30 09:47:22;;;;;;;1.60;0.98;;;11.70;85.20;;;;;;5003211;28;20103;-73
2023/12/30 09:49:50;;;;;;;1.00;1.00;;;11.70;85.50;;;;;;5020656;28;21016;-75
2023/12/30 09:52:16;;;;;;;1.25;0.88;;;11.70;85.50;;;;;;5036452;28;20584;-75
2023/12/30 09:54:42;;;;;;;2.95;1.00;;;11.70;85.40;;;;;;5019453;28;20030;-75
2023/12/30 09:57:08;;;;;;;1.23;1.10;;;11.60;85.20;;;;;;5035388;28;20431;-76
2023/12/30 09:59:37;;;;;;;1.52;1.10;;;11.60;85.00;;;;;;5019732;28;20349;-75
2023/12/30 10:02:09;;;;;;;1.08;0.90;;;11.60;85.00;;;;;;5021250;28;20041;-75
2023/12/30 10:04:38;;;;;;;1.35;1.05;;;11.60;85.00;;;;;;5038131;28;20073;-74
2023/12/30 10:07:04;;;;;;;2.10;1.10;;;11.60;85.10;;;;;;5018316;28;20038;-74
2023/12/30 10:09:31;;;;;;;1.73;1.00;;;11.50;85.20;;;;;;5019880;28;20037;-74
2023/12/30 10:11:58;;;;;;;1.63;0.93;;;11.50;85.10;;;;;;5019891;28;20132;-73
2023/12/30 10:14:24;;;;;;;1.48;0.93;;;11.50;85.20;;;;;;5023469;28;20697;-73
2023/12/30 10:16:50;;;;;;;1.83;0.90;;;11.50;85.20;;;;;;5020839;28;20040;-75
2023/12/30 10:19:16;;;;;;;1.17;0.85;;;11.50;85.10;;;;;;5020915;28;20025;-73
2023/12/30 10:21:42;;;;;;;2.35;0.80;;;11.50;85.30;;;;;;5020992;28;20435;-73
2023/12/30 10:24:09;;;;;;;1.27;0.90;;;11.50;85.30;;;;;;5018745;28;20052;-73
2023/12/30 10:26:37;;;;;;;1.73;0.70;;;11.40;85.30;;;;;;5021437;28;20048;-73
2023/12/30 10:29:05;;;;;;;1.27;0.80;;;11.40;85.40;;;;;;5020243;28;20489;-75
2023/12/30 10:31:31;;;;;;;0.70;0.50;;;11.40;85.40;;;;;;5019984;28;20412;-72
2023/12/30 10:33:57;;;;;;;3.72;0.90;;;11.40;85.40;;;;;;5018954;28;20500;-76
2023/12/30 10:36:26;;;;;;;0.85;0.70;;;11.40;85.40;;;;;;5018494;28;20049;-75
2023/12/30 10:38:54;;;;;;;1.02;0.60;;;11.40;85.50;;;;;;5020671;28;20216;-74
2023/12/30 10:41:20;;;;;;;2.88;1.02;;;11.40;85.40;;;;;;5002076;28;20068;-75
2023/12/30 10:43:46;;;;;;;1.25;0.70;;;11.40;85.40;;;;;;5019196;28;20625;-74
2023/12/30 10:46:13;;;;;;;2.35;0.95;;;11.40;85.70;;;;;;5019564;28;20080;-73
2023/12/30 10:49:03;;;;;;;1.58;0.70;;;11.40;86.00;;;;;;5019420;28;20041;-74
2023/12/30 10:51:33;;;;;;;1.08;0.95;;;11.30;85.90;;;;;;5021925;28;20494;-74
2023/12/30 10:54:10;;;;;;;1.50;0.80;;;11.30;85.80;;;;;;5034460;28;20045;-74
2023/12/30 10:56:45;;;;;;;1.60;0.80;;;11.30;86.10;;;;;;5021257;28;20131;-75
2023/12/30 10:59:12;;;;;;;2.23;1.00;;;11.30;86.00;;;;;;5020674;28;20048;-75
2023/12/30 11:01:40;;;;;;;2.78;1.10;;;11.30;86.10;;;;;;5020529;28;20084;-77
2023/12/30 11:04:11;;;;;;;2.58;1.20;;;11.30;86.10;;;;;;5021160;28;20107;-78
2023/12/30 11:06:51;;;;;;;4.53;1.35;;;11.30;86.20;;;;;;5020916;28;20033;-74
2023/12/30 11:09:21;;;;;;;1.60;1.20;;;11.30;86.00;;;;;;5020195;28;20052;-74
2023/12/30 11:11:52;;;;;;;1.45;1.15;;;11.30;86.30;;;;;;5006684;28;20103;-73
2023/12/30 11:14:20;;;;;;;2.35;1.05;;;11.30;86.40;;;;;;5035193;28;20124;-74
2023/12/30 11:16:50;;;;;;;2.22;1.15;;;11.30;86.40;;;;;;5050238;28;20107;-73
2023/12/30 11:19:30;;;;;;;1.45;1.30;;;11.30;86.70;;;;;;5021131;28;20034;-73
2023/12/30 11:22:05;;;;;;;5.30;1.50;;;11.30;87.10;;;;;;5018251;28;20030;-74
2023/12/30 11:24:31;;;;;;;3.75;1.27;;;11.30;88.50;;;;;;5006126;28;21480;-73
2023/12/30 11:26:58;;;;;;;7.80;1.30;;;11.30;88.30;;;;;;5020373;28;20049;-73
2023/12/30 11:29:26;;;;;;;6.75;1.48;;;11.30;87.70;;;;;;5020461;28;20033;-73
2023/12/30 11:31:56;;;;;;;3.15;1.45;;;11.30;87.50;;;;;;5018293;28;20646;-75
2023/12/30 11:34:24;;;;;;;1.77;1.30;;;11.30;87.10;;;;;;5019543;28;20034;-76
2023/12/30 11:36:51;;;;;;;1.20;1.10;;;11.30;86.80;;;;;;5020862;28;20037;-74
2023/12/30 11:39:30;;;;;;;1.25;1.13;;;11.30;86.80;;;;;;5021167;28;20041;-75
2023/12/30 11:41:59;;;;;;;2.90;0.88;;;11.30;86.70;;;;;;5019889;28;20069;-74
2023/12/30 11:44:27;;;;;;;2.15;1.05;;;11.30;86.80;;;;;;5001346;28;20087;-74
2023/12/30 11:46:53;;;;;;;4.05;1.20;;;11.30;86.40;;;;;;5018157;28;21186;-75
2023/12/30 11:49:23;;;;;;;3.05;1.38;;;11.30;86.30;;;;;;5019994;28;20030;-75
2023/12/30 11:51:50;;;;;;;2.25;0.80;;;11.30;86.30;;;;;;5018941;28;20120;-74
2023/12/30 11:54:16;;;;;;;2.80;1.00;;;11.30;86.60;;;;;;5020796;28;20129;-74
2023/12/30 11:56:42;;;;;;;1.73;1.08;;;11.30;86.70;;;;;;5017790;28;20026;-76
2023/12/30 11:59:09;;;;;;;5.13;1.27;;;11.30;86.80;;;;;;5021773;28;20022;-76
2023/12/30 12:01:35;;;;;;;1.23;0.80;;;11.30;86.90;;;;;;5018556;28;20033;-77
2023/12/30 12:04:01;;;;;;;4.18;1.40;;;11.30;86.80;;;;;;5020809;28;20042;-76
2023/12/30 12:06:27;;;;;;;3.58;0.88;;;11.30;86.90;;;;;;5018759;28;20063;-75
2023/12/30 12:08:53;;;;;;;2.85;2.08;;;11.30;86.80;;;;;;5019097;28;20039;-76
2023/12/30 12:11:19;;;;;;;3.08;1.25;;;11.30;86.80;;;;;;5020716;28;20029;-73
2023/12/30 12:13:46;;;;;;;2.47;1.00;;;11.30;86.80;;;;;;5017736;28;20080;-77
2023/12/30 12:16:12;;;;;;;7.07;1.55;;;11.40;90.10;;;;;;5017721;28;20029;-76
2023/12/30 12:18:39;;;;;;;3.13;1.20;;;11.30;88.50;;;;;;5018003;28;20036;-75
2023/12/30 12:21:15;;;;;;;2.65;1.60;;;11.30;86.60;;;;;;5017097;28;20603;-75
2023/12/30 12:23:44;;;;;;;6.28;1.67;;;11.20;85.30;;;;;;5021778;28;20025;-76
2023/12/30 12:26:10;;;;;;;5.28;1.85;;;11.10;84.50;;;;;;5019209;28;20031;-76
2023/12/30 12:28:36;;;;;;;1.60;1.30;;;11.00;84.00;;;;;;5021256;28;20396;-75
2023/12/30 12:31:05;;;;;;;4.90;1.65;;;11.00;83.90;;;;;;5019065;28;20169;-75
2023/12/30 12:33:31;;;;;;;2.75;1.63;;;10.90;83.50;;;;;;5018066;28;20030;-75
2023/12/30 12:35:57;;;;;;;3.22;1.48;;;10.90;83.40;;;;;;5020464;28;20107;-74
2023/12/30 12:38:23;;;;;;;2.38;1.40;;;10.90;83.40;;;;;;5020233;28;20030;-75
2023/12/30 12:40:49;;;;;;;2.33;1.20;;;10.90;83.40;;;;;;5006181;28;20572;-75
2023/12/30 12:43:15;;;;;;;1.40;1.30;;;10.80;83.20;;;;;;5017675;28;20088;-75
2023/12/30 12:45:42;;;;;;;4.40;1.40;;;10.80;83.40;;;;;;5018399;28;20792;-75